sensor_id;sensor_type;location;lat;lon;timestamp;pressure;altitude;pressure_sealevel;temperature;humidity
14204;BME280;7185;51.854;6.622;2024-02-26T00:01:52;99667.34;;;11.23;57.18
14204;BME280;7185;51.854;6.622;2024-02-26T00:04:23;99664.44;;;11.30;56.85
14204;BME280;7185;51.854;6.622;2024-02-26T00:06:55;99669.56;;;11.10;57.60
14204;BME280;7185;51.854;6.622;2024-02-26T00:09:28;99673.41;;;10.74;58.51
14204;BME280;7185;51.854;6.622;2024-02-26T00:12:00;99674.31;;;10.73;58.40
14204;BME280;7185;51.854;6.622;2024-02-26T00:14:34;99666.13;;;10.82;58.35
14204;BME280;7185;51.854;6.622;2024-02-26T00:17:05;99669.13;;;10.97;57.80
14204;BME280;7185;51.854;6.622;2024-02-26T00:19:37;99668.00;;;11.04;57.80
14204;BME280;7185;51.854;6.622;2024-02-26T00:22:09;99653.28;;;11.00;57.91
14204;BME280;7185;51.854;6.622;2024-02-26T00:24:40;99657.69;;;10.74;58.23
14204;BME280;7185;51.854;6.622;2024-02-26T00:27:12;99659.19;;;10.81;58.33
14204;BME280;7185;51.854;6.622;2024-02-26T00:29:45;99648.47;;;10.88;57.93
14204;BME280;7185;51.854;6.622;2024-02-26T00:32:17;99646.97;;;10.80;57.96
14204;BME280;7185;51.854;6.622;2024-02-26T00:34:49;99651.09;;;10.88;58.29
14204;BME280;7185;51.854;6.622;2024-02-26T00:37:20;99639.97;;;11.30;56.94
14204;BME280;7185;51.854;6.622;2024-02-26T00:39:52;99651.78;;;10.93;57.79
14204;BME280;7185;51.854;6.622;2024-02-26T00:42:24;99646.16;;;11.04;57.82
14204;BME280;7185;51.854;6.622;2024-02-26T00:44:57;99656.44;;;10.84;58.19
14204;BME280;7185;51.854;6.622;2024-02-26T00:47:29;99655.84;;;11.02;57.36
14204;BME280;7185;51.854;6.622;2024-02-26T00:50:00;99653.50;;;10.94;58.09
14204;BME280;7185;51.854;6.622;2024-02-26T00:52:32;99655.22;;;10.95;57.80
14204;BME280;7185;51.854;6.622;2024-02-26T00:55:05;99656.22;;;10.91;58.30
14204;BME280;7185;51.854;6.622;2024-02-26T00:57:37;99645.66;;;11.18;57.35
14204;BME280;7185;51.854;6.622;2024-02-26T01:00:13;99649.41;;;11.10;57.51
14204;BME280;7185;51.854;6.622;2024-02-26T01:02:46;99647.84;;;11.30;56.88
14204;BME280;7185;51.854;6.622;2024-02-26T01:05:18;99646.22;;;11.02;57.80
14204;BME280;7185;51.854;6.622;2024-02-26T01:07:49;99645.56;;;11.21;57.17
14204;BME280;7185;51.854;6.622;2024-02-26T01:10:21;99652.81;;;10.89;57.16
14204;BME280;7185;51.854;6.622;2024-02-26T01:12:53;99641.97;;;11.23;56.78
14204;BME280;7185;51.854;6.622;2024-02-26T01:15:26;99647.97;;;11.02;57.58
14204;BME280;7185;51.854;6.622;2024-02-26T01:17:58;99636.31;;;11.34;57.10
14204;BME280;7185;51.854;6.622;2024-02-26T01:20:29;99643.75;;;10.97;57.65
14204;BME280;7185;51.854;6.622;2024-02-26T01:23:01;99640.72;;;11.34;57.04
14204;BME280;7185;51.854;6.622;2024-02-26T01:25:33;99646.09;;;11.05;57.32
14204;BME280;7185;51.854;6.622;2024-02-26T01:28:05;99651.47;;;10.77;57.46
14204;BME280;7185;51.854;6.622;2024-02-26T01:30:38;99653.88;;;11.32;57.10
14204;BME280;7185;51.854;6.622;2024-02-26T01:33:10;99662.91;;;11.48;56.55
14204;BME280;7185;51.854;6.622;2024-02-26T01:35:41;99656.06;;;11.68;55.88
14204;BME280;7185;51.854;6.622;2024-02-26T01:38:13;99663.69;;;10.78;57.66
14204;BME280;7185;51.854;6.622;2024-02-26T01:40:45;99663.34;;;10.87;57.96
14204;BME280;7185;51.854;6.622;2024-02-26T01:43:17;99663.13;;;11.19;57.56
14204;BME280;7185;51.854;6.622;2024-02-26T01:45:50;99669.22;;;11.19;57.65
14204;BME280;7185;51.854;6.622;2024-02-26T01:48:21;99680.03;;;11.10;57.74
14204;BME280;7185;51.854;6.622;2024-02-26T01:50:53;99676.97;;;11.22;57.07
14204;BME280;7185;51.854;6.622;2024-02-26T01:53:25;99673.81;;;11.38;56.90
14204;BME280;7185;51.854;6.622;2024-02-26T01:55:57;99672.84;;;11.16;57.40
14204;BME280;7185;51.854;6.622;2024-02-26T01:58:29;99678.31;;;11.34;57.14
14204;BME280;7185;51.854;6.622;2024-02-26T02:01:04;99679.06;;;11.12;57.69
14204;BME280;7185;51.854;6.622;2024-02-26T02:03:36;99680.09;;;11.34;57.09
14204;BME280;7185;51.854;6.622;2024-02-26T02:06:08;99685.50;;;11.53;56.23
14204;BME280;7185;51.854;6.622;2024-02-26T02:08:40;99688.13;;;11.53;56.82
14204;BME280;7185;51.854;6.622;2024-02-26T02:11:13;99689.09;;;11.50;56.89
14204;BME280;7185;51.854;6.622;2024-02-26T02:13:45;99688.94;;;11.55;56.84
14204;BME280;7185;51.854;6.622;2024-02-26T02:16:19;99686.44;;;11.52;56.81
14204;BME280;7185;51.854;6.622;2024-02-26T02:18:50;99695.31;;;11.47;56.76
14204;BME280;7185;51.854;6.622;2024-02-26T02:21:24;99697.19;;;11.44;56.48
14204;BME280;7185;51.854;6.622;2024-02-26T02:23:55;99688.13;;;11.53;57.10
14204;BME280;7185;51.854;6.622;2024-02-26T02:26:27;99687.69;;;11.65;56.72
14204;BME280;7185;51.854;6.622;2024-02-26T02:28:59;99693.97;;;11.37;57.59
14204;BME280;7185;51.854;6.622;2024-02-26T02:31:31;99687.75;;;11.40;57.37
14204;BME280;7185;51.854;6.622;2024-02-26T02:34:03;99691.22;;;11.40;57.24
14204;BME280;7185;51.854;6.622;2024-02-26T02:36:48;99691.22;;;11.40;57.35
14204;BME280;7185;51.854;6.622;2024-02-26T02:39:20;99693.97;;;11.37;57.44
14204;BME280;7185;51.854;6.622;2024-02-26T02:41:52;99705.31;;;11.12;58.25
14204;BME280;7185;51.854;6.622;2024-02-26T02:44:24;99710.84;;;11.30;58.12
14204;BME280;7185;51.854;6.622;2024-02-26T02:46:55;99702.97;;;11.30;57.80
14204;BME280;7185;51.854;6.622;2024-02-26T02:49:27;99702.31;;;11.23;58.23
14204;BME280;7185;51.854;6.622;2024-02-26T02:52:00;99701.34;;;11.26;58.40
14204;BME280;7185;51.854;6.622;2024-02-26T02:54:32;99703.56;;;11.38;58.27
14204;BME280;7185;51.854;6.622;2024-02-26T02:57:04;99696.84;;;11.29;57.85
14204;BME280;7185;51.854;6.622;2024-02-26T02:59:36;99697.72;;;11.30;58.22
14204;BME280;7185;51.854;6.622;2024-02-26T03:02:08;99696.66;;;10.85;59.42
14204;BME280;7185;51.854;6.622;2024-02-26T03:04:40;99695.31;;;11.24;59.04
14204;BME280;7185;51.854;6.622;2024-02-26T03:07:13;99697.28;;;10.92;59.57
14204;BME280;7185;51.854;6.622;2024-02-26T03:09:45;99693.09;;;11.11;59.06
14204;BME280;7185;51.854;6.622;2024-02-26T03:12:16;99695.09;;;11.30;58.90
14204;BME280;7185;51.854;6.622;2024-02-26T03:14:48;99685.56;;;11.02;59.40
14204;BME280;7185;51.854;6.622;2024-02-26T03:17:20;99692.19;;;11.12;59.57
14204;BME280;7185;51.854;6.622;2024-02-26T03:19:54;99686.59;;;11.47;58.47
14204;BME280;7185;51.854;6.622;2024-02-26T03:22:27;99698.75;;;11.50;58.90
14204;BME280;7185;51.854;6.622;2024-02-26T03:24:59;99697.88;;;11.49;58.62
14204;BME280;7185;51.854;6.622;2024-02-26T03:27:31;99705.16;;;11.17;59.54
14204;BME280;7185;51.854;6.622;2024-02-26T03:30:03;99705.09;;;11.19;59.26
14204;BME280;7185;51.854;6.622;2024-02-26T03:32:35;99704.84;;;11.50;58.63
14204;BME280;7185;51.854;6.622;2024-02-26T03:35:08;99708.34;;;11.51;58.81
14204;BME280;7185;51.854;6.622;2024-02-26T03:37:41;99711.44;;;11.86;57.80
14204;BME280;7185;51.854;6.622;2024-02-26T03:40:13;99706.59;;;11.26;59.18
14204;BME280;7185;51.854;6.622;2024-02-26T03:42:45;99710.84;;;11.54;58.57
14204;BME280;7185;51.854;6.622;2024-02-26T03:45:16;99714.19;;;11.59;58.73
14204;BME280;7185;51.854;6.622;2024-02-26T03:50:21;99717.50;;;11.39;59.38
14204;BME280;7185;51.854;6.622;2024-02-26T03:52:54;99716.38;;;11.46;59.19
14204;BME280;7185;51.854;6.622;2024-02-26T03:55:27;99717.44;;;11.40;59.43
14204;BME280;7185;51.854;6.622;2024-02-26T03:57:59;99718.81;;;11.27;59.87
14204;BME280;7185;51.854;6.622;2024-02-26T04:00:31;99730.13;;;11.53;59.10
14204;BME280;7185;51.854;6.622;2024-02-26T04:03:03;99725.88;;;11.25;59.98
14204;BME280;7185;51.854;6.622;2024-02-26T04:05:34;99727.66;;;11.24;60.46
14204;BME280;7185;51.854;6.622;2024-02-26T04:08:07;99728.53;;;11.48;59.67
14204;BME280;7185;51.854;6.622;2024-02-26T04:10:41;99728.00;;;11.64;59.62
14204;BME280;7185;51.854;6.622;2024-02-26T04:13:12;99730.69;;;11.37;60.70
14204;BME280;7185;51.854;6.622;2024-02-26T04:15:45;99724.84;;;11.54;60.43
14204;BME280;7185;51.854;6.622;2024-02-26T04:18:17;99731.22;;;11.47;60.23
14204;BME280;7185;51.854;6.622;2024-02-26T04:20:48;99734.47;;;11.54;60.29
14204;BME280;7185;51.854;6.622;2024-02-26T04:23:23;99729.59;;;11.43;60.66
14204;BME280;7185;51.854;6.622;2024-02-26T04:25:55;99736.41;;;11.48;60.70
14204;BME280;7185;51.854;6.622;2024-02-26T04:28:26;99738.94;;;11.26;61.85
14204;BME280;7185;51.854;6.622;2024-02-26T04:30:59;99735.59;;;11.21;62.10
14204;BME280;7185;51.854;6.622;2024-02-26T04:33:33;99751.53;;;11.16;62.24
14204;BME280;7185;51.854;6.622;2024-02-26T04:36:05;99745.09;;;11.25;62.40
14204;BME280;7185;51.854;6.622;2024-02-26T04:38:44;99738.28;;;11.20;62.30
14204;BME280;7185;51.854;6.622;2024-02-26T04:41:16;99749.97;;;11.11;62.73
14204;BME280;7185;51.854;6.622;2024-02-26T04:43:48;99749.81;;;11.15;63.12
14204;BME280;7185;51.854;6.622;2024-02-26T04:46:19;99741.59;;;11.25;62.13
14204;BME280;7185;51.854;6.622;2024-02-26T04:48:52;99748.03;;;11.16;62.84
14204;BME280;7185;51.854;6.622;2024-02-26T04:51:23;99746.41;;;10.87;63.85
14204;BME280;7185;51.854;6.622;2024-02-26T04:53:56;99746.41;;;10.60;64.47
14204;BME280;7185;51.854;6.622;2024-02-26T04:56:28;99751.53;;;10.90;64.19
14204;BME280;7185;51.854;6.622;2024-02-26T04:59:00;99751.34;;;10.96;63.63
14204;BME280;7185;51.854;6.622;2024-02-26T05:01:31;99761.44;;;11.08;63.60
14204;BME280;7185;51.854;6.622;2024-02-26T05:04:03;99760.44;;;10.86;63.69
14204;BME280;7185;51.854;6.622;2024-02-26T05:06:36;99757.78;;;10.59;64.66
14204;BME280;7185;51.854;6.622;2024-02-26T05:09:09;99756.06;;;10.58;65.09
14204;BME280;7185;51.854;6.622;2024-02-26T05:11:41;99764.44;;;10.69;64.72
14204;BME280;7185;51.854;6.622;2024-02-26T05:14:12;99759.31;;;10.93;63.92
14204;BME280;7185;51.854;6.622;2024-02-26T05:16:44;99755.94;;;10.62;65.08
14204;BME280;7185;51.854;6.622;2024-02-26T05:19:16;99750.56;;;10.67;64.93
14204;BME280;7185;51.854;6.622;2024-02-26T05:21:47;99760.75;;;10.48;65.46
14204;BME280;7185;51.854;6.622;2024-02-26T05:24:22;99750.03;;;10.82;64.79
14204;BME280;7185;51.854;6.622;2024-02-26T05:26:53;99756.56;;;10.42;65.68
14204;BME280;7185;51.854;6.622;2024-02-26T05:29:26;99760.19;;;10.38;66.00
14204;BME280;7185;51.854;6.622;2024-02-26T05:31:57;99761.91;;;10.39;66.16
14204;BME280;7185;51.854;6.622;2024-02-26T05:34:29;99766.13;;;10.13;66.65
14204;BME280;7185;51.854;6.622;2024-02-26T05:37:01;99763.88;;;10.31;66.09
14204;BME280;7185;51.854;6.622;2024-02-26T05:39:34;99771.63;;;10.34;65.99
14204;BME280;7185;51.854;6.622;2024-02-26T05:42:06;99770.38;;;10.47;65.79
14204;BME280;7185;51.854;6.622;2024-02-26T05:44:39;99776.84;;;10.34;65.91
14204;BME280;7185;51.854;6.622;2024-02-26T05:47:11;99765.78;;;9.96;67.39
14204;BME280;7185;51.854;6.622;2024-02-26T05:49:44;99774.22;;;10.35;66.61
14204;BME280;7185;51.854;6.622;2024-02-26T05:52:15;99770.34;;;10.19;66.75
14204;BME280;7185;51.854;6.622;2024-02-26T05:54:48;99783.59;;;10.44;66.33
14204;BME280;7185;51.854;6.622;2024-02-26T05:57:20;99778.88;;;9.96;67.45
14204;BME280;7185;51.854;6.622;2024-02-26T05:59:52;99782.59;;;10.17;67.43
14204;BME280;7185;51.854;6.622;2024-02-26T06:02:24;99779.00;;;10.21;67.19
14204;BME280;7185;51.854;6.622;2024-02-26T06:04:56;99786.63;;;10.59;66.39
14204;BME280;7185;51.854;6.622;2024-02-26T06:07:28;99792.78;;;10.58;66.09
14204;BME280;7185;51.854;6.622;2024-02-26T06:10:01;99789.34;;;10.56;66.21
14204;BME280;7185;51.854;6.622;2024-02-26T06:12:35;99793.91;;;10.77;65.53
14204;BME280;7185;51.854;6.622;2024-02-26T06:15:08;99800.56;;;10.31;66.55
14204;BME280;7185;51.854;6.622;2024-02-26T06:17:40;99807.50;;;10.62;65.87
14204;BME280;7185;51.854;6.622;2024-02-26T06:20:12;99806.16;;;10.77;65.46
14204;BME280;7185;51.854;6.622;2024-02-26T06:22:45;99812.31;;;10.16;67.44
14204;BME280;7185;51.854;6.622;2024-02-26T06:25:19;99815.00;;;10.14;67.13
14204;BME280;7185;51.854;6.622;2024-02-26T06:27:51;99812.50;;;10.10;67.42
14204;BME280;7185;51.854;6.622;2024-02-26T06:30:23;99830.66;;;9.86;68.74
14204;BME280;7185;51.854;6.622;2024-02-26T06:32:54;99828.53;;;9.99;68.10
14204;BME280;7185;51.854;6.622;2024-02-26T06:35:29;99826.97;;;9.93;68.67
14204;BME280;7185;51.854;6.622;2024-02-26T06:38:01;99821.94;;;10.15;67.66
14204;BME280;7185;51.854;6.622;2024-02-26T06:40:34;99825.41;;;10.17;67.60
14204;BME280;7185;51.854;6.622;2024-02-26T06:43:08;99827.31;;;9.79;68.71
14204;BME280;7185;51.854;6.622;2024-02-26T06:45:41;99831.72;;;10.10;68.05
14204;BME280;7185;51.854;6.622;2024-02-26T06:48:12;99828.75;;;9.91;68.08
14204;BME280;7185;51.854;6.622;2024-02-26T06:50:44;99825.91;;;9.99;68.57
14204;BME280;7185;51.854;6.622;2024-02-26T06:53:16;99826.00;;;9.96;68.21
14204;BME280;7185;51.854;6.622;2024-02-26T06:55:49;99832.25;;;9.90;68.62
14204;BME280;7185;51.854;6.622;2024-02-26T06:58:20;99836.13;;;10.08;68.38
14204;BME280;7185;51.854;6.622;2024-02-26T07:00:52;99831.13;;;9.99;68.10
14204;BME280;7185;51.854;6.622;2024-02-26T07:03:24;99841.66;;;9.66;69.68
14204;BME280;7185;51.854;6.622;2024-02-26T07:05:56;99839.53;;;9.47;69.87
14204;BME280;7185;51.854;6.622;2024-02-26T07:08:28;99831.84;;;9.74;69.19
14204;BME280;7185;51.854;6.622;2024-02-26T07:11:01;99843.19;;;9.73;69.49
14204;BME280;7185;51.854;6.622;2024-02-26T07:13:32;99846.78;;;10.02;68.25
14204;BME280;7185;51.854;6.622;2024-02-26T07:16:05;99843.50;;;9.62;69.43
14204;BME280;7185;51.854;6.622;2024-02-26T07:18:39;99844.63;;;10.48;67.08
14204;BME280;7185;51.854;6.622;2024-02-26T07:21:11;99857.44;;;10.26;67.07
14204;BME280;7185;51.854;6.622;2024-02-26T07:23:43;99857.59;;;10.21;67.40
14204;BME280;7185;51.854;6.622;2024-02-26T07:26:16;99863.41;;;10.01;68.02
14204;BME280;7185;51.854;6.622;2024-02-26T07:28:49;99868.25;;;10.46;66.32
14204;BME280;7185;51.854;6.622;2024-02-26T07:31:21;99860.34;;;10.16;67.24
14204;BME280;7185;51.854;6.622;2024-02-26T07:33:53;99862.38;;;10.38;66.45
14204;BME280;7185;51.854;6.622;2024-02-26T07:36:24;99863.31;;;10.65;65.96
14204;BME280;7185;51.854;6.622;2024-02-26T07:38:56;99868.69;;;10.31;67.09
14204;BME280;7185;51.854;6.622;2024-02-26T07:41:29;99861.00;;;10.55;66.20
14204;BME280;7185;51.854;6.622;2024-02-26T07:44:01;99863.34;;;10.64;65.70
14204;BME280;7185;51.854;6.622;2024-02-26T07:46:33;99867.00;;;10.58;66.40
14204;BME280;7185;51.854;6.622;2024-02-26T07:49:04;99870.75;;;10.79;65.02
14204;BME280;7185;51.854;6.622;2024-02-26T07:51:36;99872.75;;;10.71;65.30
14204;BME280;7185;51.854;6.622;2024-02-26T07:54:08;99880.72;;;10.38;66.86
14204;BME280;7185;51.854;6.622;2024-02-26T07:56:41;99885.84;;;10.43;66.47
14204;BME280;7185;51.854;6.622;2024-02-26T07:59:12;99885.41;;;10.57;66.02
14204;BME280;7185;51.854;6.622;2024-02-26T08:01:49;99895.63;;;10.66;65.86
14204;BME280;7185;51.854;6.622;2024-02-26T08:04:21;99901.75;;;10.95;65.41
14204;BME280;7185;51.854;6.622;2024-02-26T08:06:52;99906.50;;;11.10;64.88
14204;BME280;7185;51.854;6.622;2024-02-26T08:09:24;99908.03;;;10.89;65.47
14204;BME280;7185;51.854;6.622;2024-02-26T08:11:56;99923.13;;;10.51;66.26
14204;BME280;7185;51.854;6.622;2024-02-26T08:14:28;99931.91;;;10.80;65.51
14204;BME280;7185;51.854;6.622;2024-02-26T08:17:00;99927.69;;;11.04;65.23
14204;BME280;7185;51.854;6.622;2024-02-26T08:19:31;99934.28;;;10.89;65.61
14204;BME280;7185;51.854;6.622;2024-02-26T08:22:06;99932.78;;;10.80;66.02
14204;BME280;7185;51.854;6.622;2024-02-26T08:24:37;99936.19;;;10.84;65.32
14204;BME280;7185;51.854;6.622;2024-02-26T08:27:10;99943.47;;;10.74;65.57
14204;BME280;7185;51.854;6.622;2024-02-26T08:29:42;99951.03;;;10.83;66.03
14204;BME280;7185;51.854;6.622;2024-02-26T08:32:14;99949.63;;;10.73;65.98
14204;BME280;7185;51.854;6.622;2024-02-26T08:34:45;99953.53;;;10.88;65.45
14204;BME280;7185;51.854;6.622;2024-02-26T08:37:17;99949.44;;;11.08;65.47
14204;BME280;7185;51.854;6.622;2024-02-26T08:39:48;99944.25;;;11.06;65.36
14204;BME280;7185;51.854;6.622;2024-02-26T08:42:21;99948.13;;;11.23;64.67
14204;BME280;7185;51.854;6.622;2024-02-26T08:44:54;99943.88;;;10.90;65.59
14204;BME280;7185;51.854;6.622;2024-02-26T08:47:26;99950.47;;;10.74;66.38
14204;BME280;7185;51.854;6.622;2024-02-26T08:49:58;99945.41;;;10.97;66.00
14204;BME280;7185;51.854;6.622;2024-02-26T08:52:30;99939.13;;;11.02;65.54
14204;BME280;7185;51.854;6.622;2024-02-26T08:55:02;99950.97;;;11.15;64.97
14204;BME280;7185;51.854;6.622;2024-02-26T08:57:35;99953.16;;;11.00;65.42
14204;BME280;7185;51.854;6.622;2024-02-26T09:00:07;99958.00;;;11.14;65.47
14204;BME280;7185;51.854;6.622;2024-02-26T09:02:39;99964.56;;;10.70;66.58
14204;BME280;7185;51.854;6.622;2024-02-26T09:07:53;99963.13;;;11.18;65.36
14204;BME280;7185;51.854;6.622;2024-02-26T09:10:25;99957.53;;;11.28;65.14
14204;BME280;7185;51.854;6.622;2024-02-26T09:12:58;99958.88;;;11.42;65.10
14204;BME280;7185;51.854;6.622;2024-02-26T09:15:30;99966.75;;;11.42;64.60
14204;BME280;7185;51.854;6.622;2024-02-26T09:18:01;99974.94;;;11.32;64.68
14204;BME280;7185;51.854;6.622;2024-02-26T09:20:33;99972.44;;;11.28;64.59
14204;BME280;7185;51.854;6.622;2024-02-26T09:23:05;99974.25;;;11.26;64.86
14204;BME280;7185;51.854;6.622;2024-02-26T09:25:36;99969.28;;;11.45;63.99
14204;BME280;7185;51.854;6.622;2024-02-26T09:28:09;99977.09;;;11.46;64.45
14204;BME280;7185;51.854;6.622;2024-02-26T09:30:41;99978.94;;;11.44;64.47
14204;BME280;7185;51.854;6.622;2024-02-26T09:33:13;99982.66;;;11.37;64.42
14204;BME280;7185;51.854;6.622;2024-02-26T09:35:45;99989.63;;;11.38;64.81
14204;BME280;7185;51.854;6.622;2024-02-26T09:38:17;100000.84;;;10.85;65.38
14204;BME280;7185;51.854;6.622;2024-02-26T09:40:48;99998.97;;;11.19;64.99
14204;BME280;7185;51.854;6.622;2024-02-26T09:43:22;99991.88;;;11.49;63.50
14204;BME280;7185;51.854;6.622;2024-02-26T09:45:54;99999.16;;;11.12;64.72
14204;BME280;7185;51.854;6.622;2024-02-26T09:48:26;99997.31;;;11.71;63.09
14204;BME280;7185;51.854;6.622;2024-02-26T09:50:58;100000.41;;;10.99;64.89
14204;BME280;7185;51.854;6.622;2024-02-26T09:53:30;100009.38;;;11.50;63.77
14204;BME280;7185;51.854;6.622;2024-02-26T09:56:04;100015.81;;;11.40;63.05
14204;BME280;7185;51.854;6.622;2024-02-26T09:58:38;100014.44;;;11.28;63.84
14204;BME280;7185;51.854;6.622;2024-02-26T10:01:11;100017.00;;;11.29;63.39
14204;BME280;7185;51.854;6.622;2024-02-26T10:03:48;100024.88;;;10.99;64.60
14204;BME280;7185;51.854;6.622;2024-02-26T10:06:21;100034.72;;;10.93;65.23
14204;BME280;7185;51.854;6.622;2024-02-26T10:08:53;100031.06;;;10.97;64.65
14204;BME280;7185;51.854;6.622;2024-02-26T10:11:26;100021.88;;;11.13;64.68
14204;BME280;7185;51.854;6.622;2024-02-26T10:13:59;100034.00;;;10.86;65.03
14204;BME280;7185;51.854;6.622;2024-02-26T10:16:32;100027.47;;;11.01;64.68
14204;BME280;7185;51.854;6.622;2024-02-26T10:19:04;100047.75;;;10.94;65.33
14204;BME280;7185;51.854;6.622;2024-02-26T10:21:36;100032.72;;;11.31;64.26
14204;BME280;7185;51.854;6.622;2024-02-26T10:24:13;100048.38;;;10.73;64.77
14204;BME280;7185;51.854;6.622;2024-02-26T10:26:45;100047.50;;;11.04;64.85
14204;BME280;7185;51.854;6.622;2024-02-26T10:29:19;100050.50;;;10.90;65.72
14204;BME280;7185;51.854;6.622;2024-02-26T10:31:51;100064.81;;;10.79;65.30
14204;BME280;7185;51.854;6.622;2024-02-26T10:34:23;100060.31;;;10.51;66.67
14204;BME280;7185;51.854;6.622;2024-02-26T10:36:55;100060.03;;;10.61;66.67
14204;BME280;7185;51.854;6.622;2024-02-26T10:39:27;100065.16;;;10.65;67.33
14204;BME280;7185;51.854;6.622;2024-02-26T10:41:59;100075.78;;;10.61;67.57
14204;BME280;7185;51.854;6.622;2024-02-26T10:44:36;100073.78;;;10.71;66.49
14204;BME280;7185;51.854;6.622;2024-02-26T10:47:08;100077.97;;;10.78;66.70
14204;BME280;7185;51.854;6.622;2024-02-26T10:49:45;100083.22;;;10.76;67.34
14204;BME280;7185;51.854;6.622;2024-02-26T10:52:18;100091.09;;;10.76;67.46
14204;BME280;7185;51.854;6.622;2024-02-26T10:54:53;100097.84;;;10.52;68.20
14204;BME280;7185;51.854;6.622;2024-02-26T10:57:27;100099.69;;;10.12;69.23
14204;BME280;7185;51.854;6.622;2024-02-26T11:00:05;100110.94;;;10.54;68.04
14204;BME280;7185;51.854;6.622;2024-02-26T11:02:41;100109.06;;;10.59;68.15
14204;BME280;7185;51.854;6.622;2024-02-26T11:05:14;100114.75;;;10.75;67.57
14204;BME280;7185;51.854;6.622;2024-02-26T11:07:46;100121.91;;;11.01;66.69
14204;BME280;7185;51.854;6.622;2024-02-26T11:10:21;100124.22;;;10.80;66.98
14204;BME280;7185;51.854;6.622;2024-02-26T11:12:55;100123.19;;;11.18;66.31
14204;BME280;7185;51.854;6.622;2024-02-26T11:15:31;100127.94;;;11.05;66.54
14204;BME280;7185;51.854;6.622;2024-02-26T11:18:05;100121.63;;;11.10;66.67
14204;BME280;7185;51.854;6.622;2024-02-26T11:23:17;100131.63;;;11.29;66.55
14204;BME280;7185;51.854;6.622;2024-02-26T11:25:50;100128.88;;;11.02;66.83
14204;BME280;7185;51.854;6.622;2024-02-26T11:28:24;100137.28;;;10.82;67.55
14204;BME280;7185;51.854;6.622;2024-02-26T11:31:00;100137.34;;;10.80;67.84
14204;BME280;7185;51.854;6.622;2024-02-26T11:33:35;100143.84;;;10.98;67.84
14204;BME280;7185;51.854;6.622;2024-02-26T11:36:08;100141.47;;;10.56;69.16
14204;BME280;7185;51.854;6.622;2024-02-26T11:38:40;100153.13;;;10.77;68.62
14204;BME280;7185;51.854;6.622;2024-02-26T11:41:12;100149.88;;;11.02;67.62
14204;BME280;7185;51.854;6.622;2024-02-26T11:43:50;100145.66;;;10.62;68.74
14204;BME280;7185;51.854;6.622;2024-02-26T11:46:28;100153.81;;;10.86;68.96
14204;BME280;7185;51.854;6.622;2024-02-26T11:49:01;100150.34;;;10.83;68.57
14204;BME280;7185;51.854;6.622;2024-02-26T11:51:34;100151.13;;;10.87;68.65
14204;BME280;7185;51.854;6.622;2024-02-26T11:54:06;100141.19;;;10.67;68.53
14204;BME280;7185;51.854;6.622;2024-02-26T11:56:40;100148.78;;;10.76;68.47
14204;BME280;7185;51.854;6.622;2024-02-26T11:59:12;100146.53;;;10.62;68.92
14204;BME280;7185;51.854;6.622;2024-02-26T12:02:05;100148.38;;;10.92;68.18
14204;BME280;7185;51.854;6.622;2024-02-26T12:04:38;100146.16;;;10.43;69.73
14204;BME280;7185;51.854;6.622;2024-02-26T12:07:12;100155.22;;;10.27;70.39
14204;BME280;7185;51.854;6.622;2024-02-26T12:09:44;100154.19;;;10.70;69.18
14204;BME280;7185;51.854;6.622;2024-02-26T12:12:18;100150.63;;;10.74;69.17
14204;BME280;7185;51.854;6.622;2024-02-26T12:14:53;100154.53;;;10.58;69.84
14204;BME280;7185;51.854;6.622;2024-02-26T12:17:28;100168.47;;;10.60;69.77
14204;BME280;7185;51.854;6.622;2024-02-26T12:20:08;100155.84;;;10.40;69.89
14204;BME280;7185;51.854;6.622;2024-02-26T12:22:40;100169.38;;;10.19;71.02
14204;BME280;7185;51.854;6.622;2024-02-26T12:25:12;100175.41;;;10.23;70.60
14204;BME280;7185;51.854;6.622;2024-02-26T12:27:44;100168.75;;;10.47;70.12
14204;BME280;7185;51.854;6.622;2024-02-26T12:30:16;100185.19;;;10.54;69.95
14204;BME280;7185;51.854;6.622;2024-02-26T12:32:50;100183.84;;;10.36;69.99
14204;BME280;7185;51.854;6.622;2024-02-26T12:35:22;100180.88;;;10.51;69.88
14204;BME280;7185;51.854;6.622;2024-02-26T12:37:55;100185.25;;;10.13;70.57
14204;BME280;7185;51.854;6.622;2024-02-26T12:40:27;100186.34;;;10.42;69.87
14204;BME280;7185;51.854;6.622;2024-02-26T12:42:58;100195.53;;;9.82;71.79
14204;BME280;7185;51.854;6.622;2024-02-26T12:45:30;100196.47;;;10.18;70.80
14204;BME280;7185;51.854;6.622;2024-02-26T12:48:05;100193.50;;;10.34;70.29
14204;BME280;7185;51.854;6.622;2024-02-26T12:50:36;100200.13;;;10.50;70.48
14204;BME280;7185;51.854;6.622;2024-02-26T12:53:08;100206.59;;;10.35;70.99
14204;BME280;7185;51.854;6.622;2024-02-26T12:55:40;100206.69;;;10.31;70.71
14204;BME280;7185;51.854;6.622;2024-02-26T12:58:12;100200.56;;;10.30;70.84
14204;BME280;7185;51.854;6.622;2024-02-26T13:00:45;100204.22;;;10.25;71.13
14204;BME280;7185;51.854;6.622;2024-02-26T13:03:20;100206.44;;;10.02;72.11
14204;BME280;7185;51.854;6.622;2024-02-26T13:05:52;100216.81;;;10.07;71.74
14204;BME280;7185;51.854;6.622;2024-02-26T13:08:25;100213.16;;;10.14;71.82
14204;BME280;7185;51.854;6.622;2024-02-26T13:10:56;100222.81;;;10.14;72.34
14204;BME280;7185;51.854;6.622;2024-02-26T13:13:28;100219.16;;;10.21;71.09
14204;BME280;7185;51.854;6.622;2024-02-26T13:16:04;100221.78;;;10.19;71.70
14204;BME280;7185;51.854;6.622;2024-02-26T13:18:39;100236.53;;;10.24;71.57
14204;BME280;7185;51.854;6.622;2024-02-26T13:21:13;100244.47;;;10.20;72.15
14204;BME280;7185;51.854;6.622;2024-02-26T13:23:49;100249.56;;;10.27;72.45
14204;BME280;7185;51.854;6.622;2024-02-26T13:26:22;100242.91;;;10.89;69.64
14204;BME280;7185;51.854;6.622;2024-02-26T13:29:01;100243.81;;;10.86;69.18
14204;BME280;7185;51.854;6.622;2024-02-26T13:31:38;100253.75;;;11.09;69.24
14204;BME280;7185;51.854;6.622;2024-02-26T13:34:22;100255.44;;;11.12;68.57
14204;BME280;7185;51.854;6.622;2024-02-26T13:36:55;100264.88;;;11.18;68.65
14204;BME280;7185;51.854;6.622;2024-02-26T13:42:00;100259.38;;;10.58;70.07
14204;BME280;7185;51.854;6.622;2024-02-26T13:44:32;100267.47;;;11.19;68.54
14204;BME280;7185;51.854;6.622;2024-02-26T13:47:07;100268.22;;;10.90;69.57